Gushi, China
Current Conditions -  °F | °C
As of 4:00 AM on Saturday 25 Oct 2014 (Local Time) from ZSOF Reporting Station
Haze Haze  
Wind Chill: 57°   Ceiling: Unl
Heat Index: 57°   Visibility: 2.5mi
Dew Point: 54°   Wind: 7mph
Humidity: 88%   Direction: 160°SSE
Pressure: 30"   Gusts: NA
Location:  32.18°N, 115.67°E
Report Text: ZSOF 242000Z 16003MPS 4000 BR NSC 14/12 Q1016 NOSIG
Loading
Personal Weather Stations






























Interactive Weather Map
Tropical Storm Tracking
New forecast layout! Learn more

10-Day Weather Forecast

Advertisements
Track Severe Weather on mobile